createdAt,value
2019-05-23T00:02:24.229Z,53.30
2019-05-23T00:04:55.535Z,91.00
2019-05-23T00:07:26.709Z,52.05
2019-05-23T00:09:58.775Z,186.37
2019-05-23T00:12:42.625Z,83.93
2019-05-23T00:15:29.824Z,125.67
2019-05-23T00:18:00.513Z,120.02
2019-05-23T00:20:32.885Z,129.37
2019-05-23T00:23:03.178Z,104.20
2019-05-23T00:25:34.080Z,97.62
2019-05-23T00:28:06.534Z,289.77
2019-05-23T00:30:47.472Z,141.03
2019-05-23T00:33:18.759Z,125.15
2019-05-23T00:35:48.238Z,114.23
2019-05-23T00:38:19.469Z,168.97
2019-05-23T00:40:50.733Z,148.87
2019-05-23T00:43:21.295Z,118.73
2019-05-23T00:45:51.433Z,104.40
2019-05-23T00:48:21.145Z,69.22
2019-05-23T00:50:52.781Z,123.77
2019-05-23T00:53:22.332Z,143.53
2019-05-23T00:55:53.667Z,163.37
2019-05-23T00:58:23.301Z,137.10
2019-05-23T01:00:54.092Z,132.20
2019-05-23T01:03:25.083Z,442.30
2019-05-23T01:05:55.492Z,242.33
2019-05-23T01:08:26.144Z,112.73
2019-05-23T01:10:56.484Z,148.90
2019-05-23T01:13:28.139Z,85.07
2019-05-23T01:15:58.855Z,104.13
2019-05-23T01:18:28.834Z,78.30
2019-05-23T01:20:59.454Z,67.63
2019-05-23T01:23:37.181Z,70.90
2019-05-23T01:26:06.806Z,63.03
2019-05-23T01:28:37.288Z,68.40
2019-05-23T01:31:12.044Z,97.80
2019-05-23T01:33:42.107Z,84.57
2019-05-23T01:36:11.997Z,243.07
2019-05-23T01:38:42.913Z,264.37
2019-05-23T01:41:12.752Z,248.27
2019-05-23T01:43:43.461Z,136.10
2019-05-23T01:46:13.302Z,141.93
2019-05-23T01:48:43.714Z,116.37
2019-05-23T01:51:13.982Z,312.75
2019-05-23T01:53:43.456Z,244.53
2019-05-23T01:56:13.564Z,250.83
2019-05-23T01:58:43.314Z,141.50
2019-05-23T02:01:12.818Z,139.18
2019-05-23T02:03:42.494Z,301.13
2019-05-23T02:06:11.963Z,231.82
2019-05-23T02:08:41.630Z,120.37
2019-05-23T02:11:12.358Z,141.10
2019-05-23T02:13:41.935Z,341.97
2019-05-23T02:16:11.983Z,124.63
2019-05-23T02:18:42.138Z,90.33
2019-05-23T02:21:12.926Z,86.23
2019-05-23T02:23:43.361Z,116.67
2019-05-23T02:26:12.980Z,126.63
2019-05-23T02:28:43.343Z,182.80
2019-05-23T02:31:13.594Z,249.60
2019-05-23T02:33:43.518Z,129.77
2019-05-23T02:36:13.292Z,236.73
2019-05-23T02:38:51.203Z,214.38
2019-05-23T02:41:33.593Z,268.83
2019-05-23T02:44:04.984Z,425.37
2019-05-23T02:46:51.124Z,283.37
2019-05-23T02:49:22.880Z,307.77
2019-05-23T02:51:53.732Z,264.20
2019-05-23T02:54:26.664Z,152.10
2019-05-23T02:56:57.796Z,301.80
2019-05-23T02:59:49.023Z,325.73
2019-05-23T03:02:47.300Z,83.23
2019-05-23T03:05:18.503Z,154.50
2019-05-23T03:07:48.141Z,81.73
2019-05-23T03:10:20.411Z,59.03
2019-05-23T03:12:53.159Z,114.33
2019-05-23T03:15:24.818Z,64.53
2019-05-23T03:17:58.422Z,50.53
2019-05-23T03:20:29.729Z,67.72
2019-05-23T03:23:08.312Z,60.63
2019-05-23T03:25:43.151Z,61.47
2019-05-23T03:28:13.987Z,44.50
2019-05-23T03:30:48.136Z,75.87
2019-05-23T03:33:18.894Z,75.37
2019-05-23T03:35:56.240Z,48.03
2019-05-23T03:38:25.724Z,47.10
2019-05-23T03:40:55.658Z,40.37
2019-05-23T03:43:25.710Z,39.07
2019-05-23T03:45:59.564Z,39.42
2019-05-23T03:48:29.619Z,35.93
2019-05-23T03:51:00.831Z,44.13
2019-05-23T03:53:31.866Z,79.37
2019-05-23T03:56:03.992Z,47.77
2019-05-23T03:58:33.483Z,37.60
2019-05-23T04:01:05.918Z,116.93
2019-05-23T04:03:39.677Z,43.28
2019-05-23T04:06:06.847Z,32.80
2019-05-23T04:08:36.906Z,66.60
2019-05-23T04:11:06.752Z,35.63
2019-05-23T04:13:36.259Z,110.67
2019-05-23T04:16:06.099Z,105.67
2019-05-23T04:18:36.142Z,91.47
2019-05-23T04:21:06.519Z,72.30
2019-05-23T04:23:36.337Z,30.67
2019-05-23T04:26:06.182Z,28.70
2019-05-23T04:28:36.190Z,54.23
2019-05-23T04:31:07.016Z,21.40
2019-05-23T04:33:36.678Z,28.80
2019-05-23T04:36:06.272Z,38.30
2019-05-23T04:38:36.719Z,23.87
2019-05-23T04:41:06.783Z,29.70
2019-05-23T04:43:36.265Z,23.77
2019-05-23T04:46:06.903Z,20.30
2019-05-23T04:48:36.780Z,24.43
2019-05-23T04:51:07.628Z,20.25
2019-05-23T04:53:37.612Z,35.60
2019-05-23T04:56:07.181Z,28.23
2019-05-23T04:58:37.601Z,80.07
2019-05-23T05:01:07.362Z,86.10
2019-05-23T05:03:36.941Z,31.13
2019-05-23T05:06:06.915Z,22.37
2019-05-23T05:08:36.392Z,21.77
2019-05-23T05:11:05.892Z,21.27
2019-05-23T05:13:35.491Z,36.50
2019-05-23T05:16:05.512Z,32.83
2019-05-23T05:18:35.076Z,26.83
2019-05-23T05:21:05.527Z,39.17
2019-05-23T05:23:35.027Z,15.50
2019-05-23T05:26:06.586Z,14.40
2019-05-23T05:28:36.305Z,12.80
2019-05-23T05:31:06.839Z,10.80
2019-05-23T05:33:36.405Z,10.10
2019-05-23T05:36:05.942Z,10.30
2019-05-23T05:38:35.885Z,10.70
2019-05-23T05:41:06.490Z,11.80
2019-05-23T05:43:36.349Z,11.40
2019-05-23T05:46:06.287Z,12.77
2019-05-23T05:48:35.843Z,12.18
2019-05-23T05:51:05.768Z,12.63
2019-05-23T05:53:35.528Z,13.00
2019-05-23T05:56:05.295Z,12.97
2019-05-23T05:58:34.975Z,15.80
2019-05-23T06:01:06.367Z,13.33
2019-05-23T06:03:35.930Z,13.35
2019-05-23T06:06:22.315Z,12.70
2019-05-23T06:08:53.631Z,12.37
2019-05-23T06:11:23.239Z,13.72
2019-05-23T06:13:52.837Z,14.83
2019-05-23T06:16:22.692Z,15.27
2019-05-23T06:18:52.266Z,15.97
2019-05-23T06:21:23.787Z,14.33
2019-05-23T06:23:53.296Z,15.63
2019-05-23T06:26:22.879Z,16.13
2019-05-23T06:28:52.625Z,16.97
2019-05-23T06:31:22.500Z,17.23
2019-05-23T06:33:52.705Z,15.60
2019-05-23T06:36:22.318Z,17.57
2019-05-23T06:38:51.948Z,17.47
2019-05-23T06:41:22.846Z,21.90
2019-05-23T06:43:52.471Z,20.23
2019-05-23T06:46:22.149Z,16.07
2019-05-23T06:48:51.628Z,17.37
2019-05-23T06:51:21.437Z,16.35
2019-05-23T06:53:51.364Z,15.10
2019-05-23T06:56:21.012Z,14.47
2019-05-23T06:58:51.808Z,14.40
2019-05-23T07:01:21.315Z,13.68
2019-05-23T07:03:50.936Z,15.05
2019-05-23T07:06:24.672Z,13.23
2019-05-23T07:08:54.659Z,10.40
2019-05-23T07:11:24.643Z,10.00
2019-05-23T07:13:54.225Z,9.93
2019-05-23T07:16:23.785Z,10.50
2019-05-23T07:18:53.359Z,9.97
2019-05-23T07:21:22.981Z,11.83
2019-05-23T07:23:52.462Z,9.33
2019-05-23T07:26:22.043Z,8.70
2019-05-23T07:28:51.782Z,9.43
2019-05-23T07:31:21.279Z,8.07
2019-05-23T07:34:00.899Z,8.03
2019-05-23T07:36:22.160Z,8.53
2019-05-23T07:38:52.209Z,9.38
2019-05-23T07:41:21.852Z,9.13
2019-05-23T07:43:52.031Z,7.37
2019-05-23T07:46:21.536Z,7.83
2019-05-23T07:48:51.187Z,7.87
2019-05-23T07:51:20.674Z,8.70
2019-05-23T07:53:52.984Z,8.53
2019-05-23T07:56:24.182Z,10.20
2019-05-23T07:58:53.669Z,9.27
2019-05-23T08:01:27.922Z,8.15
2019-05-23T08:03:57.822Z,12.90
2019-05-23T08:06:27.769Z,9.53
2019-05-23T08:08:57.819Z,7.77
2019-05-23T08:11:27.657Z,8.78
2019-05-23T08:13:57.692Z,8.40
2019-05-23T08:16:27.441Z,9.53
2019-05-23T08:18:56.928Z,8.57
2019-05-23T08:21:26.771Z,10.35
2019-05-23T08:23:56.260Z,8.97
2019-05-23T08:26:27.377Z,9.17
2019-05-23T08:29:24.285Z,8.35
2019-05-23T08:31:28.506Z,7.73
2019-05-23T08:33:59.400Z,6.95
2019-05-23T08:39:30.300Z,8.50
2019-05-23T08:41:59.874Z,7.53
2019-05-23T08:44:29.872Z,8.90
2019-05-23T08:46:59.367Z,7.40
2019-05-23T08:49:28.858Z,7.27
2019-05-23T08:51:58.421Z,9.43
2019-05-23T08:54:28.917Z,8.67
2019-05-23T08:56:58.574Z,7.73
2019-05-23T08:59:28.068Z,7.05
2019-05-23T09:01:57.721Z,7.40
2019-05-23T09:04:27.542Z,6.78
2019-05-23T09:06:57.206Z,7.92
2019-05-23T09:09:30.351Z,6.50
2019-05-23T09:11:58.846Z,7.40
2019-05-23T09:14:29.131Z,7.42
2019-05-23T09:16:59.050Z,7.22
2019-05-23T09:19:28.684Z,7.28
2019-05-23T09:21:58.372Z,8.30
2019-05-23T09:24:28.078Z,7.10
2019-05-23T09:26:58.934Z,8.28
2019-05-23T09:29:28.766Z,6.75
2019-05-23T09:31:58.660Z,6.72
2019-05-23T09:34:28.164Z,7.13
2019-05-23T09:37:00.369Z,8.53
2019-05-23T09:39:29.067Z,6.17
2019-05-23T09:41:58.591Z,6.60
2019-05-23T09:44:28.109Z,6.65
2019-05-23T09:46:57.764Z,6.27
2019-05-23T09:49:27.448Z,6.50
2019-05-23T09:52:00.979Z,6.78
2019-05-23T09:54:29.642Z,6.72
2019-05-23T09:56:59.471Z,6.60
2019-05-23T09:59:29.236Z,6.33
2019-05-23T10:01:58.745Z,5.35
2019-05-23T10:04:28.224Z,7.67
2019-05-23T10:06:57.720Z,6.55
2019-05-23T10:09:27.358Z,5.10
2019-05-23T10:11:56.974Z,6.95
2019-05-23T10:14:28.099Z,6.87
2019-05-23T10:16:57.603Z,5.03
2019-05-23T10:19:27.083Z,5.33
2019-05-23T10:21:56.555Z,5.53
2019-05-23T10:24:26.125Z,6.30
2019-05-23T10:26:55.633Z,6.40
2019-05-23T10:29:25.142Z,6.83
2019-05-23T10:31:54.878Z,5.62
2019-05-23T10:34:24.492Z,5.15
2019-05-23T10:36:54.310Z,4.90
2019-05-23T10:39:23.843Z,5.90
2019-05-23T10:41:53.326Z,5.77
2019-05-23T10:44:23.211Z,5.00
2019-05-23T10:46:52.728Z,4.35
2019-05-23T10:49:22.367Z,4.43
2019-05-23T10:51:51.834Z,5.10
2019-05-23T10:54:21.699Z,4.27
2019-05-23T10:56:52.434Z,6.12
2019-05-23T10:59:22.177Z,3.68
2019-05-23T11:01:51.945Z,3.73
2019-05-23T11:04:21.741Z,5.00
2019-05-23T11:06:51.328Z,3.90
2019-05-23T11:09:36.545Z,5.30
2019-05-23T11:11:52.917Z,5.40
2019-05-23T11:14:22.486Z,4.17
2019-05-23T11:16:52.344Z,4.87
2019-05-23T11:19:21.815Z,4.90
2019-05-23T11:21:51.363Z,5.00
2019-05-23T11:24:21.161Z,6.40
2019-05-23T11:26:50.633Z,5.07
2019-05-23T11:29:20.164Z,3.77
2019-05-23T11:31:50.100Z,4.30
2019-05-23T11:34:20.172Z,4.40
2019-05-23T11:36:49.702Z,3.50
2019-05-23T11:39:21.081Z,4.23
2019-05-23T11:41:50.550Z,3.80
2019-05-23T11:44:20.024Z,6.08
2019-05-23T11:46:50.258Z,4.70
2019-05-23T11:49:20.079Z,4.90
2019-05-23T11:51:49.727Z,4.70
2019-05-23T11:54:19.569Z,4.00
2019-05-23T11:56:49.141Z,4.07
2019-05-23T11:59:18.926Z,4.28
2019-05-23T12:01:50.027Z,4.10
2019-05-23T12:04:20.955Z,6.65
2019-05-23T12:06:58.081Z,3.87
2019-05-23T12:09:27.696Z,4.65
2019-05-23T12:11:57.196Z,4.45
2019-05-23T12:14:26.741Z,3.83
2019-05-23T12:16:57.847Z,5.45
2019-05-23T12:19:27.810Z,4.93
2019-05-23T12:21:57.611Z,4.55
2019-05-23T12:24:27.094Z,4.77
2019-05-23T12:26:56.759Z,3.80
2019-05-23T12:29:26.293Z,4.60
2019-05-23T12:31:56.303Z,6.08
2019-05-23T12:34:25.935Z,5.10
2019-05-23T12:37:17.052Z,5.00
2019-05-23T12:39:27.037Z,7.33
2019-05-23T12:41:56.553Z,7.30
2019-05-23T12:44:26.096Z,7.03
2019-05-23T12:46:55.827Z,5.90
2019-05-23T12:49:29.837Z,6.45
2019-05-23T12:51:59.498Z,6.83
2019-05-23T12:54:29.351Z,7.17
2019-05-23T12:56:59.003Z,5.80
2019-05-23T12:59:28.477Z,6.00
2019-05-23T13:01:59.542Z,4.53
2019-05-23T13:04:29.263Z,6.20
2019-05-23T13:06:59.012Z,5.70
2019-05-23T13:09:28.571Z,4.03
2019-05-23T13:11:58.419Z,4.56
2019-05-23T13:14:28.069Z,4.65
2019-05-23T13:17:00.762Z,5.40
2019-05-23T13:19:29.183Z,4.83
2019-05-23T13:21:58.749Z,5.58
2019-05-23T13:24:28.387Z,4.08
2019-05-23T13:26:57.932Z,4.65
2019-05-23T13:29:27.600Z,8.65
2019-05-23T13:31:57.266Z,3.93
2019-05-23T13:34:26.738Z,3.83
2019-05-23T13:36:56.525Z,4.70
2019-05-23T13:39:26.227Z,5.82
2019-05-23T13:41:55.847Z,6.03
2019-05-23T13:44:33.757Z,4.40
2019-05-23T13:46:56.954Z,4.80
2019-05-23T13:49:26.770Z,5.20
2019-05-23T13:51:56.914Z,4.60
2019-05-23T13:54:27.201Z,4.83
2019-05-23T13:56:56.772Z,5.28
2019-05-23T13:59:26.325Z,5.77
2019-05-23T14:01:56.362Z,4.90
2019-05-23T14:04:26.593Z,5.35
2019-05-23T14:06:56.111Z,4.05
2019-05-23T14:09:25.603Z,5.17
2019-05-23T14:12:20.222Z,3.93
2019-05-23T14:14:26.464Z,6.23
2019-05-23T14:17:13.676Z,4.37
2019-05-23T14:19:43.470Z,5.00
2019-05-23T14:22:13.090Z,6.37
2019-05-23T14:24:42.621Z,4.90
2019-05-23T14:27:29.795Z,6.37
2019-05-23T14:30:09.731Z,5.40
2019-05-23T14:32:34.682Z,5.67
2019-05-23T14:35:05.544Z,4.42
2019-05-23T14:37:42.408Z,5.03
2019-05-23T14:40:12.057Z,5.37
2019-05-23T14:42:55.048Z,4.47
2019-05-23T14:45:42.588Z,4.28
2019-05-23T14:48:29.623Z,6.30
2019-05-23T14:51:16.430Z,4.92
2019-05-23T14:54:04.095Z,3.53
2019-05-23T14:56:35.281Z,4.62
2019-05-23T14:59:05.142Z,5.07
2019-05-23T15:01:35.343Z,8.13
2019-05-23T15:04:06.109Z,6.37
2019-05-23T15:06:36.852Z,6.63
2019-05-23T15:09:09.601Z,4.65
2019-05-23T15:11:39.557Z,4.90
2019-05-23T15:14:09.112Z,5.70
2019-05-23T15:16:38.605Z,6.43
2019-05-23T15:19:08.156Z,5.45
2019-05-23T15:21:37.644Z,5.78
2019-05-23T15:24:07.387Z,4.33
2019-05-23T15:26:37.044Z,4.60
2019-05-23T15:29:06.973Z,5.97
2019-05-23T15:31:36.484Z,4.67
2019-05-23T15:34:05.978Z,5.17
2019-05-23T15:36:35.494Z,6.05
2019-05-23T15:39:10.191Z,4.33
2019-05-23T15:41:39.408Z,7.70
2019-05-23T15:44:24.496Z,4.17
2019-05-23T15:46:40.170Z,5.60
2019-05-23T15:49:12.530Z,4.88
2019-05-23T15:51:55.222Z,5.40
2019-05-23T15:54:24.481Z,5.62
2019-05-23T15:57:04.191Z,4.72
2019-05-23T15:59:51.518Z,5.10
2019-05-23T16:02:22.634Z,6.30
2019-05-23T16:04:53.467Z,6.67
2019-05-23T16:07:23.716Z,6.70
2019-05-23T16:09:53.889Z,5.42
2019-05-23T16:12:23.623Z,7.08
2019-05-23T16:14:53.112Z,5.80
2019-05-23T16:17:22.771Z,7.13
2019-05-23T16:19:52.688Z,4.97
2019-05-23T16:22:23.003Z,5.56
2019-05-23T16:24:52.655Z,4.70
2019-05-23T16:27:22.249Z,4.83
2019-05-23T16:33:13.131Z,5.92
2019-05-23T16:35:42.634Z,6.10
2019-05-23T16:38:12.126Z,4.63
2019-05-23T16:40:41.607Z,4.36
2019-05-23T16:43:11.414Z,5.97
2019-05-23T16:45:40.971Z,5.80
2019-05-23T16:48:10.541Z,7.45
2019-05-23T16:50:40.103Z,5.73
2019-05-23T16:53:09.580Z,8.20
2019-05-23T16:55:41.590Z,6.84
2019-05-23T16:58:24.520Z,6.45
2019-05-23T17:01:09.132Z,5.85
2019-05-23T17:03:51.808Z,5.83
2019-05-23T17:06:28.978Z,6.37
2019-05-23T17:09:02.931Z,6.47
2019-05-23T17:11:32.417Z,6.43
2019-05-23T17:14:03.551Z,5.90
2019-05-23T17:16:34.706Z,6.90
2019-05-23T17:19:11.776Z,17.67
2019-05-23T17:21:43.008Z,4.90
2019-05-23T17:24:32.468Z,6.03
2019-05-23T17:27:19.642Z,5.27
2019-05-23T17:29:59.841Z,5.15
2019-05-23T17:32:32.355Z,6.92
2019-05-23T17:35:01.874Z,6.72
2019-05-23T17:37:32.213Z,6.27
2019-05-23T17:40:01.735Z,7.40
2019-05-23T17:42:31.363Z,6.53
2019-05-23T17:45:00.912Z,6.95
2019-05-23T17:47:30.863Z,7.08
2019-05-23T17:50:00.415Z,4.87
2019-05-23T17:52:30.101Z,6.10
2019-05-23T17:54:59.664Z,5.63
2019-05-23T17:57:29.747Z,5.80
2019-05-23T17:59:59.249Z,5.67
2019-05-23T18:02:29.094Z,4.30
2019-05-23T18:04:58.605Z,6.27
2019-05-23T18:07:28.616Z,4.05
2019-05-23T18:09:59.119Z,5.13
2019-05-23T18:12:29.240Z,6.58
2019-05-23T18:14:58.788Z,4.43
2019-05-23T18:17:29.455Z,5.47
2019-05-23T18:19:58.934Z,4.43
2019-05-23T18:22:29.719Z,4.00
2019-05-23T18:24:59.876Z,3.17
2019-05-23T18:27:30.138Z,3.30
2019-05-23T18:30:01.543Z,4.50
2019-05-23T18:32:31.376Z,4.90
2019-05-23T18:35:01.199Z,3.57
2019-05-23T18:37:31.042Z,4.40
2019-05-23T18:40:00.586Z,4.73
2019-05-23T18:42:30.082Z,7.13
2019-05-23T18:45:01.238Z,4.00
2019-05-23T18:47:37.887Z,4.93
2019-05-23T18:50:11.507Z,6.17
2019-05-23T18:52:41.133Z,3.13
2019-05-23T18:55:10.972Z,4.20
2019-05-23T18:57:41.345Z,7.53
2019-05-23T19:00:11.519Z,4.57
2019-05-23T19:02:41.166Z,8.20
2019-05-23T19:05:11.941Z,3.90
2019-05-23T19:07:41.486Z,5.90
2019-05-23T19:10:11.487Z,4.37
2019-05-23T19:12:42.628Z,6.73
2019-05-23T19:15:13.739Z,6.13
2019-05-23T19:17:43.279Z,5.17
2019-05-23T19:20:13.625Z,9.63
2019-05-23T19:22:43.376Z,7.40
2019-05-23T19:25:13.564Z,4.13
2019-05-23T19:27:43.235Z,5.22
2019-05-23T19:30:13.721Z,7.17
2019-05-23T19:32:43.964Z,4.37
2019-05-23T19:35:14.287Z,6.33
2019-05-23T19:37:43.799Z,4.67
2019-05-23T19:40:14.343Z,4.57
2019-05-23T19:42:43.838Z,4.63
2019-05-23T19:45:13.592Z,6.60
2019-05-23T19:47:43.716Z,5.15
2019-05-23T19:50:13.337Z,4.17
2019-05-23T19:52:43.307Z,4.00
2019-05-23T19:55:13.002Z,5.80
2019-05-23T19:57:42.527Z,6.53
2019-05-23T20:00:20.501Z,4.00
2019-05-23T20:02:51.913Z,4.70
2019-05-23T20:05:34.814Z,4.43
2019-05-23T20:08:05.033Z,6.30
2019-05-23T20:10:34.839Z,6.53
2019-05-23T20:13:04.791Z,5.17
2019-05-23T20:15:34.413Z,4.10
2019-05-23T20:18:04.163Z,5.37
2019-05-23T20:20:35.078Z,4.10
2019-05-23T20:23:04.614Z,3.70
2019-05-23T20:25:34.455Z,6.08
2019-05-23T20:28:04.116Z,4.80
2019-05-23T20:30:47.747Z,5.87
2019-05-23T20:33:17.292Z,10.63
2019-05-23T20:35:46.763Z,5.60
2019-05-23T20:38:16.456Z,7.57
2019-05-23T20:40:45.996Z,4.07
2019-05-23T20:43:15.557Z,5.40
2019-05-23T20:45:45.093Z,5.72
2019-05-23T20:48:14.641Z,5.07
2019-05-23T20:50:44.274Z,5.20
2019-05-23T20:53:13.946Z,4.23
2019-05-23T20:55:43.411Z,3.93
2019-05-23T20:58:12.958Z,5.07
2019-05-23T21:00:45.393Z,6.30
2019-05-23T21:03:14.918Z,4.87
2019-05-23T21:05:44.532Z,4.73
2019-05-23T21:08:14.009Z,4.53
2019-05-23T21:10:47.059Z,5.73
2019-05-23T21:13:16.886Z,4.47
2019-05-23T21:15:47.381Z,5.90
2019-05-23T21:18:16.856Z,5.43
2019-05-23T21:20:46.414Z,4.83
2019-05-23T21:23:15.893Z,8.23
2019-05-23T21:25:47.071Z,5.70
2019-05-23T21:28:17.284Z,7.15
2019-05-23T21:30:46.830Z,7.33
2019-05-23T21:33:16.397Z,6.27
2019-05-23T21:35:45.883Z,5.40
2019-05-23T21:38:15.370Z,5.12
2019-05-23T21:40:46.050Z,10.30
2019-05-23T21:43:15.710Z,5.63
2019-05-23T21:45:45.452Z,8.65
2019-05-23T21:48:15.129Z,5.20
2019-05-23T21:50:44.605Z,6.35
2019-05-23T21:53:14.092Z,6.27
2019-05-23T21:55:44.583Z,6.15
2019-05-23T21:58:15.777Z,5.70
2019-05-23T22:01:04.400Z,8.08
2019-05-23T22:03:42.606Z,5.23
2019-05-23T22:06:15.259Z,8.90
2019-05-23T22:08:45.095Z,7.03
2019-05-23T22:11:14.641Z,5.73
2019-05-23T22:13:44.140Z,4.05
2019-05-23T22:16:13.892Z,5.33
2019-05-23T22:18:43.659Z,4.50
2019-05-23T22:21:13.494Z,5.87
2019-05-23T22:23:43.062Z,6.20
2019-05-23T22:26:12.628Z,5.70
2019-05-23T22:28:42.118Z,5.17
2019-05-23T22:31:11.770Z,4.97
2019-05-23T22:33:59.017Z,5.50
2019-05-23T22:36:28.641Z,6.40
2019-05-23T22:38:58.193Z,5.00
2019-05-23T22:41:27.832Z,9.13
2019-05-23T22:43:57.306Z,5.63
2019-05-23T22:46:27.949Z,4.50
2019-05-23T22:48:57.430Z,4.57
2019-05-23T22:51:26.892Z,5.60
2019-05-23T22:53:56.389Z,4.83
2019-05-23T22:56:25.877Z,5.40
2019-05-23T22:58:55.348Z,4.53
2019-05-23T23:01:26.536Z,6.07
2019-05-23T23:03:56.028Z,6.75
2019-05-23T23:06:25.718Z,5.27
2019-05-23T23:08:55.258Z,4.87
2019-05-23T23:11:24.753Z,6.63
2019-05-23T23:13:54.474Z,6.87
2019-05-23T23:16:24.020Z,7.60
2019-05-23T23:18:54.763Z,5.80
2019-05-23T23:21:24.231Z,4.73
2019-05-23T23:23:53.725Z,6.15
2019-05-23T23:26:23.278Z,4.73
2019-05-23T23:28:52.837Z,9.37
2019-05-23T23:31:23.312Z,4.55
2019-05-23T23:33:52.802Z,5.80
2019-05-23T23:36:22.297Z,6.17
2019-05-23T23:38:51.879Z,5.03
2019-05-23T23:41:21.375Z,4.80
2019-05-23T23:43:59.513Z,5.17
2019-05-23T23:46:40.391Z,6.03
2019-05-23T23:49:27.661Z,4.80
2019-05-23T23:52:14.615Z,7.08
2019-05-23T23:55:02.434Z,5.97
2019-05-23T23:57:49.628Z,5.17
